Time;durP1;ratioP1;P1;durP2;ratioP2;P2;SDS_P1;SDS_P2;PMS_P1;PMS_P2;Temp;Humidity;BMP_temperature;BMP_pressure;BME280_temperature;BME280_humidity;BME280_pressure;Samples;Min_cycle;Max_cycle;Signal;HPM_P1;HPM_P2
2021/06/02 00:02:15;;;;;;;9.98;5.90;;;14.80;94.50;;;;;;5023553;28;20033;-84
2021/06/02 00:04:52;;;;;;;7.72;5.63;;;14.80;94.40;;;;;;5041379;28;20083;-85
2021/06/02 00:07:21;;;;;;;7.45;5.60;;;14.80;94.50;;;;;;5042426;28;20045;-84
2021/06/02 00:09:47;;;;;;;7.28;5.28;;;14.70;94.40;;;;;;5044920;28;20120;-84
2021/06/02 00:12:13;;;;;;;7.10;4.72;;;14.90;94.40;;;;;;5043705;28;20510;-85
2021/06/02 00:14:39;;;;;;;4.88;4.32;;;15.00;94.30;;;;;;5045109;28;20037;-83
2021/06/02 00:17:06;;;;;;;6.75;5.35;;;14.60;94.20;;;;;;5042005;28;20037;-85
2021/06/02 00:19:32;;;;;;;10.75;4.97;;;14.60;94.50;;;;;;5025507;28;20507;-85
2021/06/02 00:22:00;;;;;;;6.88;5.22;;;14.80;94.40;;;;;;5042230;28;20040;-85
2021/06/02 00:24:26;;;;;;;5.97;5.13;;;14.50;94.30;;;;;;5042394;28;20120;-85
2021/06/02 00:26:55;;;;;;;7.18;5.25;;;14.50;94.60;;;;;;5041999;28;20580;-84
2021/06/02 00:29:24;;;;;;;7.20;5.32;;;14.80;95.00;;;;;;5043322;28;20048;-85
2021/06/02 00:31:52;;;;;;;6.63;5.28;;;14.40;95.00;;;;;;5043027;28;20098;-85
2021/06/02 00:34:19;;;;;;;7.70;5.20;;;14.40;95.00;;;;;;5043395;28;20041;-85
2021/06/02 00:36:45;;;;;;;7.20;5.07;;;14.60;95.20;;;;;;5042635;28;20040;-85
2021/06/02 00:39:12;;;;;;;6.25;5.32;;;14.30;95.30;;;;;;5043993;28;20663;-84
2021/06/02 00:41:39;;;;;;;6.15;5.55;;;14.60;95.50;;;;;;5043648;28;20499;-84
2021/06/02 00:44:07;;;;;;;7.75;5.78;;;14.60;95.40;;;;;;5040420;28;20044;-84
2021/06/02 00:46:36;;;;;;;13.50;6.47;;;14.30;95.30;;;;;;5039308;28;20039;-84
2021/06/02 00:49:03;;;;;;;9.45;5.70;;;14.30;95.20;;;;;;5018142;28;20051;-84
2021/06/02 00:51:29;;;;;;;8.30;5.80;;;14.10;95.10;;;;;;5037620;28;20665;-84
2021/06/02 00:53:55;;;;;;;6.57;4.95;;;14.10;95.10;;;;;;5038340;28;20037;-84
2021/06/02 00:56:51;;;;;;;8.70;4.72;;;14.10;95.20;;;;;;5037286;28;20043;-84
2021/06/02 00:59:18;;;;;;;5.97;4.50;;;14.10;95.30;;;;;;5031325;28;20044;-84
2021/06/02 01:01:45;;;;;;;6.03;4.55;;;14.00;95.40;;;;;;5036672;28;20423;-84
2021/06/02 01:04:15;;;;;;;7.82;4.32;;;14.30;95.30;;;;;;5037922;28;20044;-84
2021/06/02 01:06:44;;;;;;;6.65;4.30;;;14.30;95.20;;;;;;5037995;28;20047;-85
2021/06/02 01:09:11;;;;;;;5.07;4.57;;;14.00;95.20;;;;;;5038560;28;20037;-84
2021/06/02 01:11:39;;;;;;;8.05;4.88;;;13.80;95.00;;;;;;5039594;28;20134;-84
2021/06/02 01:14:05;;;;;;;5.50;4.53;;;13.70;95.00;;;;;;5036873;28;20047;-84
2021/06/02 01:16:34;;;;;;;5.45;4.30;;;13.70;95.10;;;;;;5038857;28;20403;-84
2021/06/02 01:19:01;;;;;;;4.63;4.00;;;13.60;95.10;;;;;;5036364;28;20037;-85
2021/06/02 01:21:30;;;;;;;4.97;4.25;;;13.70;94.90;;;;;;5037722;28;20127;-85
2021/06/02 01:23:59;;;;;;;5.18;3.90;;;13.70;94.90;;;;;;5037767;28;20033;-84
2021/06/02 01:26:28;;;;;;;6.22;4.07;;;14.20;94.90;;;;;;5037381;28;20041;-84
2021/06/02 01:28:55;;;;;;;6.60;3.47;;;13.60;94.80;;;;;;5021231;28;20040;-84
2021/06/02 01:31:39;;;;;;;9.18;3.72;;;13.50;94.40;;;;;;5038253;28;20120;-85
2021/06/02 01:34:48;;;;;;;5.00;3.35;;;13.50;94.50;;;;;;5037465;28;20043;-84
2021/06/02 01:37:31;;;;;;;7.45;3.95;;;13.50;94.10;;;;;;5017219;28;20107;-84
2021/06/02 01:40:00;;;;;;;5.65;3.40;;;13.50;94.20;;;;;;5039321;28;20041;-84
2021/06/02 01:43:00;;;;;;;7.32;4.25;;;13.50;94.10;;;;;;5037431;28;20048;-84
2021/06/02 01:46:00;;;;;;;4.88;3.65;;;13.40;93.90;;;;;;5038527;28;20118;-85
2021/06/02 01:48:28;;;;;;;4.25;3.50;;;13.40;93.70;;;;;;5038099;28;20086;-84
2021/06/02 01:51:14;;;;;;;5.90;3.10;;;13.30;93.90;;;;;;5037780;28;20047;-84
2021/06/02 01:54:06;;;;;;;5.93;3.45;;;13.40;93.90;;;;;;5036825;28;20793;-84
2021/06/02 01:57:12;;;;;;;5.20;3.42;;;13.30;93.80;;;;;;5037192;28;20037;-84
2021/06/02 02:00:02;;;;;;;5.10;3.65;;;13.20;93.40;;;;;;5040930;28;20120;-84
2021/06/02 02:02:36;;;;;;;5.45;3.40;;;13.20;93.50;;;;;;5042084;28;20037;-85
2021/06/02 02:05:27;;;;;;;3.63;3.08;;;13.20;93.60;;;;;;5043058;28;20537;-84
2021/06/02 02:08:02;;;;;;;3.90;3.45;;;13.10;93.70;;;;;;5021041;28;20045;-85
2021/06/02 02:10:52;;;;;;;4.65;3.70;;;13.10;93.80;;;;;;5039942;28;20513;-84
2021/06/02 02:13:18;;;;;;;7.50;3.70;;;13.10;93.80;;;;;;5040613;28;21301;-84
2021/06/02 02:16:06;;;;;;;7.72;3.75;;;13.00;93.90;;;;;;5040043;28;20033;-84
2021/06/02 02:19:00;;;;;;;6.38;3.88;;;13.00;94.00;;;;;;5040044;28;21154;-85
2021/06/02 02:21:39;;;;;;;6.43;3.50;;;13.00;94.30;;;;;;5007139;28;20081;-84
2021/06/02 02:24:10;;;;;;;5.00;3.53;;;13.00;94.60;;;;;;5042706;28;20056;-84
2021/06/02 02:27:03;;;;;;;4.60;4.13;;;12.90;94.60;;;;;;5040589;28;20037;-84
2021/06/02 02:29:53;;;;;;;6.72;3.97;;;12.80;94.70;;;;;;5040041;28;20048;-84
2021/06/02 02:32:25;;;;;;;4.30;3.40;;;12.90;95.00;;;;;;5045867;28;20052;-85
2021/06/02 02:34:53;;;;;;;7.80;4.35;;;12.70;95.00;;;;;;5047645;28;20121;-84
2021/06/02 02:37:39;;;;;;;5.22;4.13;;;12.70;95.10;;;;;;5045986;28;20052;-84
2021/06/02 02:40:12;;;;;;;6.85;4.03;;;12.70;95.30;;;;;;5045628;28;20037;-85
2021/06/02 02:42:59;;;;;;;4.80;4.28;;;12.70;95.30;;;;;;5044707;28;20719;-85
2021/06/02 02:45:46;;;;;;;4.38;3.97;;;12.70;95.60;;;;;;5046508;28;20063;-84
2021/06/02 02:48:30;;;;;;;5.32;4.40;;;12.70;95.50;;;;;;5044033;28;20049;-84
2021/06/02 02:51:18;;;;;;;5.45;4.57;;;12.70;95.40;;;;;;5046820;28;20037;-85
2021/06/02 02:53:59;;;;;;;4.97;3.95;;;12.60;95.50;;;;;;5045956;28;20067;-84
2021/06/02 02:56:40;;;;;;;6.28;4.78;;;12.60;95.50;;;;;;5045192;28;20083;-84
2021/06/02 02:59:27;;;;;;;7.28;4.85;;;12.50;95.60;;;;;;5045365;28;20041;-84
2021/06/02 03:02:02;;;;;;;5.50;4.93;;;12.50;95.80;;;;;;5043108;28;20507;-85
2021/06/02 03:04:36;;;;;;;13.07;5.28;;;12.50;95.80;;;;;;5029239;28;20040;-84
2021/06/02 03:07:05;;;;;;;5.97;4.70;;;12.50;96.00;;;;;;5044518;28;20040;-84
2021/06/02 03:10:00;;;;;;;6.28;4.85;;;12.40;96.00;;;;;;5043091;28;20041;-84
2021/06/02 03:12:52;;;;;;;8.98;4.75;;;12.40;96.00;;;;;;5026850;28;20562;-85
2021/06/02 03:15:44;;;;;;;6.63;5.03;;;12.40;96.30;;;;;;5040463;28;20045;-84
2021/06/02 03:18:21;;;;;;;6.65;5.05;;;12.40;96.30;;;;;;5039079;28;20068;-84
2021/06/02 03:21:01;;;;;;;8.40;5.30;;;12.30;96.50;;;;;;5039904;28;20039;-85
2021/06/02 03:23:50;;;;;;;8.60;5.15;;;12.30;96.50;;;;;;5023324;28;20033;-84
2021/06/02 03:26:27;;;;;;;6.70;5.28;;;12.30;96.60;;;;;;5025446;28;20124;-84
2021/06/02 03:29:01;;;;;;;6.05;5.45;;;12.30;96.70;;;;;;5039431;28;20033;-84
2021/06/02 03:31:57;;;;;;;9.13;5.90;;;12.30;96.80;;;;;;5038456;28;20041;-84
2021/06/02 03:35:00;;;;;;;10.02;5.90;;;12.30;97.10;;;;;;5041464;28;20033;-84
2021/06/02 03:37:51;;;;;;;8.80;5.55;;;12.30;97.00;;;;;;5040483;28;20047;-84
2021/06/02 03:40:42;;;;;;;8.40;5.80;;;12.30;97.30;;;;;;5040471;28;20130;-84
2021/06/02 03:43:16;;;;;;;9.68;6.43;;;12.30;97.20;;;;;;5039566;28;20064;-84
2021/06/02 03:45:51;;;;;;;10.82;6.45;;;12.40;97.40;;;;;;5040635;28;20044;-84
2021/06/02 03:48:55;;;;;;;7.20;6.23;;;12.30;97.40;;;;;;5038849;28;20040;-84
2021/06/02 03:51:36;;;;;;;7.90;5.85;;;12.30;97.80;;;;;;5021734;28;20056;-84
2021/06/02 03:54:11;;;;;;;9.52;7.30;;;12.40;97.60;;;;;;5039601;28;20039;-84
2021/06/02 03:57:12;;;;;;;6.80;6.10;;;12.40;97.80;;;;;;5019600;28;20033;-83
2021/06/02 03:59:58;;;;;;;7.82;6.00;;;12.50;97.90;;;;;;5039785;28;20128;-84
2021/06/02 04:02:32;;;;;;;7.07;6.38;;;12.60;97.90;;;;;;5037683;28;20606;-84
2021/06/02 04:05:35;;;;;;;9.52;7.13;;;12.80;98.00;;;;;;5041484;28;20399;-84
2021/06/02 04:08:30;;;;;;;9.40;7.60;;;12.80;97.80;;;;;;4993071;28;20045;-85
2021/06/02 04:11:18;;;;;;;8.60;6.30;;;12.90;97.70;;;;;;5041192;28;20036;-84
2021/06/02 04:13:54;;;;;;;8.27;7.07;;;13.00;97.70;;;;;;5039271;28;20051;-85
2021/06/02 04:16:22;;;;;;;7.90;6.40;;;13.00;97.70;;;;;;5037469;28;20754;-85
2021/06/02 04:18:49;;;;;;;12.48;7.75;;;13.10;97.60;;;;;;5039327;28;20495;-83
2021/06/02 04:21:16;;;;;;;7.88;6.45;;;13.20;97.70;;;;;;5039430;28;20037;-85
2021/06/02 04:23:44;;;;;;;7.22;6.45;;;13.40;97.50;;;;;;5042625;28;20033;-85
2021/06/02 04:26:11;;;;;;;7.60;6.65;;;13.80;97.60;;;;;;5040184;28;20452;-84
2021/06/02 04:36:41;;;;;;;7.55;6.63;;;13.80;97.10;;;;;;5040867;28;20043;-85
2021/06/02 04:43:44;;;;;;;7.50;6.50;;;14.10;96.90;;;;;;4980808;28;20053;-86
2021/06/02 04:46:33;;;;;;;9.68;6.32;;;14.40;96.80;;;;;;4994799;28;20057;-87
2021/06/02 05:12:35;;;;;;;7.75;4.95;;;21.10;72.80;;;;;;4980375;28;20510;-85
2021/06/02 05:15:35;;;;;;;8.52;4.72;;;20.90;73.10;;;;;;5000981;28;20090;-86
2021/06/02 05:18:28;;;;;;;6.03;5.30;;;20.60;74.70;;;;;;4987477;28;20448;-85
2021/06/02 05:24:16;;;;;;;6.05;5.40;;;20.30;74.90;;;;;;5044902;28;20537;-86
2021/06/02 05:26:50;;;;;;;7.03;5.28;;;20.20;77.30;;;;;;5045554;28;20079;-86
2021/06/02 05:29:53;;;;;;;9.82;4.97;;;20.20;77.60;;;;;;5044348;28;20056;-86
2021/06/02 05:32:40;;;;;;;5.95;4.90;;;20.20;78.50;;;;;;5040495;28;20037;-85
2021/06/02 05:35:44;;;;;;;7.10;5.38;;;20.30;77.80;;;;;;5047359;28;20468;-85
2021/06/02 05:38:34;;;;;;;5.40;4.75;;;20.50;76.30;;;;;;5048703;28;20040;-87
2021/06/02 05:41:53;;;;;;;5.97;3.88;;;20.70;77.10;;;;;;5048634;28;20090;-86
2021/06/02 05:45:14;;;;;;;4.53;4.10;;;21.00;76.90;;;;;;5045808;28;20048;-86
2021/06/02 05:48:54;;;;;;;5.72;4.20;;;21.30;74.50;;;;;;5004742;28;20679;-86
2021/06/02 05:52:43;;;;;;;4.55;4.07;;;21.50;72.20;;;;;;4802838;29;20053;-86
2021/06/02 05:55:49;;;;;;;5.13;3.47;;;21.30;67.10;;;;;;4805553;29;20747;-86
2021/06/02 05:59:31;;;;;;;4.65;3.85;;;21.20;68.10;;;;;;4821996;29;20524;-86
2021/06/02 06:02:48;;;;;;;5.65;4.22;;;21.10;65.00;;;;;;4821898;29;20061;-86
2021/06/02 06:06:48;;;;;;;8.57;3.70;;;21.10;63.60;;;;;;4795310;29;20041;-86
2021/06/02 06:13:46;;;;;;;11.30;4.35;;;21.30;64.10;;;;;;4818683;29;20041;-86
2021/06/02 06:21:28;;;;;;;6.07;4.32;;;21.80;62.70;;;;;;4809426;29;20095;-86
2021/06/02 06:25:30;;;;;;;8.60;4.00;;;21.70;62.00;;;;;;4800952;29;20064;-85
2021/06/02 06:28:09;;;;;;;5.90;4.07;;;21.70;61.50;;;;;;4871210;28;20071;-86
2021/06/02 06:30:38;;;;;;;6.25;3.50;;;21.50;62.10;;;;;;4981256;28;20053;-86
2021/06/02 06:33:14;;;;;;;4.13;3.60;;;21.30;62.10;;;;;;5038099;28;20056;-86
2021/06/02 06:35:43;;;;;;;8.52;4.07;;;21.00;61.50;;;;;;5039892;28;20060;-86
2021/06/02 06:38:16;;;;;;;6.68;3.75;;;20.80;62.10;;;;;;5027849;28;20120;-86
2021/06/02 06:40:42;;;;;;;6.10;4.15;;;20.50;64.20;;;;;;5041668;28;20061;-86
2021/06/02 06:43:13;;;;;;;9.60;4.13;;;20.60;64.80;;;;;;5039035;28;20331;-86
2021/06/02 06:45:40;;;;;;;7.05;4.25;;;20.10;66.20;;;;;;5042215;28;20041;-86
2021/06/02 06:48:11;;;;;;;4.65;4.20;;;19.90;66.80;;;;;;5040971;28;20033;-86
2021/06/02 06:50:37;;;;;;;9.38;4.00;;;20.10;68.00;;;;;;5040933;28;20162;-87
2021/06/02 06:53:06;;;;;;;8.70;4.60;;;20.10;67.30;;;;;;5039068;28;20070;-85
2021/06/02 06:55:32;;;;;;;4.30;3.63;;;20.10;65.90;;;;;;5022974;28;20037;-85
2021/06/02 06:57:58;;;;;;;10.63;3.63;;;20.00;66.90;;;;;;5042311;28;20033;-86
2021/06/02 07:00:25;;;;;;;4.55;4.15;;;19.80;68.40;;;;;;5040277;28;20499;-87
2021/06/02 07:02:52;;;;;;;6.22;3.47;;;20.00;69.60;;;;;;5037883;28;20043;-84
2021/06/02 07:05:19;;;;;;;3.78;3.42;;;19.80;69.10;;;;;;5039486;28;20048;-86
2021/06/02 07:07:45;;;;;;;6.13;3.63;;;19.70;70.10;;;;;;5039849;28;20128;-85
2021/06/02 07:10:13;;;;;;;4.43;4.00;;;19.60;68.90;;;;;;5038434;28;20029;-85
2021/06/02 07:12:41;;;;;;;4.57;3.90;;;19.50;69.30;;;;;;5041504;28;20045;-86
2021/06/02 07:15:10;;;;;;;6.43;4.78;;;19.40;72.40;;;;;;5038896;28;20044;-86
2021/06/02 07:17:47;;;;;;;10.13;5.97;;;19.30;75.70;;;;;;5039597;28;20045;-85
2021/06/02 07:20:21;;;;;;;6.68;4.80;;;19.40;76.80;;;;;;5040524;28;20049;-86
2021/06/02 07:22:48;;;;;;;5.47;3.80;;;19.40;78.00;;;;;;5041066;28;20067;-85
2021/06/02 07:25:20;;;;;;;4.55;3.92;;;19.60;76.90;;;;;;5040892;28;20039;-85
2021/06/02 07:27:47;;;;;;;8.90;4.72;;;19.70;74.80;;;;;;5036678;28;20041;-86
2021/06/02 07:38:19;;;;;;;5.00;4.07;;;20.00;73.10;;;;;;4979055;28;20049;-86
2021/06/02 07:49:07;;;;;;;9.02;3.50;;;20.40;70.10;;;;;;4979972;28;20604;-85
2021/06/02 07:59:55;;;;;;;9.93;3.42;;;21.00;63.50;;;;;;4855033;29;20052;-86
2021/06/02 08:03:36;;;;;;;6.70;3.22;;;21.30;63.40;;;;;;4937876;28;20073;-85
2021/06/02 08:11:06;;;;;;;5.40;2.90;;;21.40;60.60;;;;;;4882744;29;20330;-87
2021/06/02 08:14:45;;;;;;;15.27;3.30;;;21.50;60.40;;;;;;4883503;28;20050;-86
2021/06/02 08:18:06;;;;;;;3.03;2.38;;;21.80;57.50;;;;;;4946987;28;20525;-87
2021/06/02 08:22:00;;;;;;;11.75;2.88;;;21.80;57.90;;;;;;4943379;28;20038;-86
2021/06/02 08:29:21;;;;;;;9.75;1.70;;;22.40;56.00;;;;;;4924784;29;20060;-88
2021/06/02 08:33:23;;;;;;;4.88;2.53;;;22.60;55.20;;;;;;4890120;29;20047;-87
2021/06/02 08:37:05;;;;;;;3.30;2.13;;;22.80;52.80;;;;;;4879663;29;20167;-87
2021/06/02 08:40:30;;;;;;;3.17;1.50;;;23.00;53.80;;;;;;4881926;29;20055;-87
2021/06/02 08:44:30;;;;;;;2.47;1.30;;;23.40;53.90;;;;;;4859648;29;20083;-86
2021/06/02 08:55:17;;;;;;;2.83;1.17;;;23.90;51.40;;;;;;4829487;29;20068;-86
2021/06/02 08:58:55;;;;;;;5.72;1.38;;;24.00;51.90;;;;;;4858436;29;20105;-87
2021/06/02 09:02:22;;;;;;;2.55;1.40;;;23.70;50.30;;;;;;4825678;29;20064;-87
2021/06/02 09:06:08;;;;;;;2.13;1.57;;;23.40;49.50;;;;;;4808598;29;20113;-87
2021/06/02 09:08:58;;;;;;;9.20;1.40;;;23.60;51.60;;;;;;4779382;29;20311;-87
2021/06/02 09:16:17;;;;;;;2.75;1.92;;;23.90;51.50;;;;;;4918848;29;20366;-87
2021/06/02 09:20:01;;;;;;;4.05;1.85;;;24.00;50.60;;;;;;4899888;29;20148;-86
2021/06/02 09:22:27;;;;;;;3.08;1.55;;;24.20;51.30;;;;;;4926362;28;20109;-86
2021/06/02 09:24:57;;;;;;;4.63;1.25;;;24.40;50.00;;;;;;4949423;28;20167;-85
2021/06/02 09:27:42;;;;;;;4.60;1.15;;;24.40;49.60;;;;;;5039024;28;20449;-87
2021/06/02 09:30:10;;;;;;;1.60;1.20;;;24.50;47.30;;;;;;5039301;28;20029;-87
2021/06/02 09:33:01;;;;;;;7.65;1.75;;;24.60;47.80;;;;;;5037265;28;20049;-87
2021/06/02 09:36:05;;;;;;;2.33;1.15;;;24.60;48.30;;;;;;5038336;28;20072;-87
2021/06/02 09:38:32;;;;;;;1.85;1.10;;;24.70;48.90;;;;;;5022182;28;20037;-87
2021/06/02 09:40:58;;;;;;;3.47;1.55;;;25.00;48.70;;;;;;5022144;28;20041;-86
2021/06/02 09:44:22;;;;;;;3.13;1.45;;;24.80;46.80;;;;;;5040926;28;20041;-85
2021/06/02 09:47:54;;;;;;;3.58;1.50;;;24.90;49.20;;;;;;5031866;28;20486;-87
2021/06/02 09:50:32;;;;;;;4.00;1.17;;;25.20;46.70;;;;;;5040604;28;20051;-86
2021/06/02 09:53:01;;;;;;;3.83;1.50;;;25.20;47.20;;;;;;5001756;28;1050915;-87
2021/06/02 09:55:28;;;;;;;3.08;1.50;;;25.00;44.20;;;;;;5042080;28;20110;-87
2021/06/02 09:58:09;;;;;;;1.52;1.17;;;24.90;45.80;;;;;;5040591;28;20492;-86
2021/06/02 10:00:37;;;;;;;4.13;1.77;;;25.00;48.80;;;;;;5040404;28;20079;-86
2021/06/02 10:03:11;;;;;;;4.07;1.52;;;24.90;46.60;;;;;;5023836;28;20594;-88
2021/06/02 10:05:39;;;;;;;4.72;1.60;;;25.10;47.50;;;;;;5043301;28;20090;-85
2021/06/02 10:08:10;;;;;;;2.05;1.35;;;25.30;45.80;;;;;;5024374;28;20706;-86
2021/06/02 10:10:36;;;;;;;4.22;1.55;;;25.10;45.00;;;;;;5026314;28;20041;-87
2021/06/02 10:13:11;;;;;;;3.78;1.40;;;25.40;43.70;;;;;;5041083;28;20036;-86
2021/06/02 10:15:43;;;;;;;2.65;1.92;;;25.40;46.60;;;;;;5041642;28;20045;-87
2021/06/02 10:18:30;;;;;;;5.57;1.58;;;25.40;45.30;;;;;;5041195;28;20483;-87
2021/06/02 10:20:58;;;;;;;5.80;1.92;;;25.50;46.90;;;;;;5045442;28;20510;-87
2021/06/02 10:23:26;;;;;;;3.20;1.77;;;25.50;47.50;;;;;;5032724;28;20037;-87
2021/06/02 10:25:52;;;;;;;8.07;2.00;;;25.70;47.00;;;;;;5029643;28;20036;-88
2021/06/02 10:28:18;;;;;;;4.00;1.92;;;25.40;44.00;;;;;;5027317;28;20043;-89
2021/06/02 10:30:44;;;;;;;4.50;2.03;;;25.30;46.10;;;;;;5045923;28;20049;-87
2021/06/02 10:33:09;;;;;;;7.57;1.83;;;25.20;46.80;;;;;;5027965;28;20040;-88
2021/06/02 10:35:37;;;;;;;2.90;2.08;;;25.00;45.80;;;;;;5031136;28;20465;-87
2021/06/02 10:38:24;;;;;;;3.60;1.90;;;25.00;47.40;;;;;;5043548;28;20061;-85
2021/06/02 10:40:56;;;;;;;7.10;2.50;;;25.20;48.80;;;;;;5035906;28;20068;-86
2021/06/02 10:43:28;;;;;;;3.53;1.92;;;25.30;45.90;;;;;;5030706;28;20053;-88
2021/06/02 10:46:01;;;;;;;5.30;2.30;;;25.30;49.40;;;;;;5027558;28;20037;-86
2021/06/02 10:48:59;;;;;;;3.10;2.35;;;25.60;47.00;;;;;;5044834;28;20033;-87
2021/06/02 10:51:33;;;;;;;8.60;2.30;;;25.60;47.40;;;;;;5047651;28;20139;-86
2021/06/02 10:54:41;;;;;;;;;;;;;;;;;;;;;
2021/06/02 10:57:17;;;;;;;3.58;2.20;;;25.90;47.10;;;;;;5039828;28;20099;-87
2021/06/02 10:59:44;;;;;;;6.30;1.98;;;26.00;45.80;;;;;;5044466;28;20834;-87
2021/06/02 11:02:14;;;;;;;6.03;2.33;;;26.30;47.80;;;;;;5049367;28;20044;-87
2021/06/02 11:04:59;;;;;;;5.43;3.42;;;26.30;46.50;;;;;;5045627;28;20041;-87
2021/06/02 11:11:58;;;;;;;5.55;2.40;;;26.00;44.70;;;;;;5050941;28;20048;-88
2021/06/02 11:30:18;;;;;;;8.43;2.53;;;25.40;47.10;;;;;;5060659;28;20039;-87
2021/06/02 11:45:07;;;;;;;4.90;3.08;;;25.20;49.70;;;;;;4835743;29;21367;-84
2021/06/02 11:55:42;;;;;;;4.75;3.50;;;25.50;50.70;;;;;;4822821;29;20049;-86
2021/06/02 11:59:07;;;;;;;7.25;2.95;;;25.70;51.00;;;;;;4730362;30;20064;-84
2021/06/02 12:01:46;;;;;;;4.13;3.10;;;25.70;49.40;;;;;;4777220;29;20518;-85
2021/06/02 12:04:12;;;;;;;4.90;3.00;;;25.60;48.90;;;;;;4973474;28;20108;-86
2021/06/02 12:06:37;;;;;;;3.78;2.95;;;25.60;49.20;;;;;;5033167;28;20113;-87
2021/06/02 12:09:09;;;;;;;8.93;3.60;;;25.60;48.40;;;;;;5044131;28;20045;-86
2021/06/02 12:11:36;;;;;;;3.88;3.35;;;25.80;48.70;;;;;;5032639;28;20376;-86
2021/06/02 12:14:02;;;;;;;3.38;2.58;;;25.80;48.50;;;;;;5047156;28;20155;-86
2021/06/02 12:16:29;;;;;;;6.20;3.30;;;26.00;49.60;;;;;;5047318;28;20108;-86
2021/06/02 12:18:59;;;;;;;7.00;3.72;;;26.00;51.00;;;;;;5048500;28;20043;-86
2021/06/02 12:21:29;;;;;;;4.65;3.00;;;26.10;48.40;;;;;;5033652;28;20056;-86
2021/06/02 12:23:58;;;;;;;9.55;3.33;;;26.20;52.10;;;;;;5031354;28;20380;-87
2021/06/02 12:26:27;;;;;;;6.70;3.60;;;26.00;48.70;;;;;;5027640;28;20064;-85
2021/06/02 12:28:58;;;;;;;4.03;3.22;;;25.90;48.60;;;;;;5049121;28;20655;-86
2021/06/02 12:31:36;;;;;;;4.72;3.33;;;25.80;50.60;;;;;;5048034;28;20126;-87
2021/06/02 12:34:03;;;;;;;6.53;3.45;;;25.80;50.50;;;;;;5044440;28;20094;-85
2021/06/02 12:36:31;;;;;;;8.27;3.78;;;25.80;50.80;;;;;;5047691;28;20041;-86
2021/06/02 12:38:59;;;;;;;5.85;3.15;;;25.70;49.80;;;;;;5048065;28;20060;-86
2021/06/02 12:59:58;;;;;;;6.00;4.20;;;26.00;52.30;;;;;;5045877;28;20079;-87
2021/06/02 13:11:25;;;;;;;5.72;3.67;;;26.20;51.20;;;;;;4888227;29;20111;-86
2021/06/02 13:29:56;;;;;;;5.95;3.33;;;26.20;49.30;;;;;;4822436;29;20048;-87
2021/06/02 13:33:03;;;;;;;8.23;2.95;;;26.30;49.60;;;;;;4810056;29;20046;-86
2021/06/02 13:59:14;;;;;;;4.82;2.97;;;26.00;48.30;;;;;;4926427;28;21154;-86
2021/06/02 14:01:42;;;;;;;5.82;3.22;;;26.10;49.60;;;;;;5009321;28;20048;-86
2021/06/02 14:04:08;;;;;;;3.65;2.88;;;26.20;51.10;;;;;;5035918;28;20067;-86
2021/06/02 14:06:35;;;;;;;5.43;3.03;;;26.30;50.20;;;;;;5037732;28;20604;-87
2021/06/02 14:09:04;;;;;;;5.28;2.80;;;26.40;51.10;;;;;;5035255;28;20040;-87
2021/06/02 14:11:30;;;;;;;6.30;3.03;;;26.40;52.50;;;;;;5042228;28;20044;-86
2021/06/02 14:13:56;;;;;;;5.53;3.00;;;26.40;51.30;;;;;;5052440;28;20037;-87
2021/06/02 14:16:22;;;;;;;5.50;3.22;;;26.40;51.30;;;;;;5051686;28;20036;-87
2021/06/02 14:18:54;;;;;;;8.65;3.53;;;26.50;49.80;;;;;;5035237;28;20040;-87
2021/06/02 14:21:23;;;;;;;5.90;3.55;;;26.30;50.30;;;;;;5053240;28;20036;-86
2021/06/02 14:23:49;;;;;;;7.35;2.90;;;26.10;47.70;;;;;;5051397;28;20029;-86
2021/06/02 14:26:15;;;;;;;3.78;2.70;;;26.20;50.80;;;;;;5035410;28;20048;-87
2021/06/02 14:28:42;;;;;;;4.38;2.80;;;26.30;49.50;;;;;;5054046;28;20045;-86
2021/06/02 14:31:11;;;;;;;5.07;2.90;;;26.30;49.20;;;;;;5067968;28;20049;-87
2021/06/02 14:33:38;;;;;;;3.28;2.38;;;26.30;49.00;;;;;;5032052;28;20083;-87
2021/06/02 14:36:05;;;;;;;7.38;3.58;;;26.40;49.80;;;;;;5037806;28;20055;-87
2021/06/02 14:38:33;;;;;;;2.78;2.58;;;26.50;48.00;;;;;;5050372;28;20040;-87
2021/06/02 14:41:00;;;;;;;6.53;3.13;;;26.70;47.70;;;;;;5048906;28;20040;-87
2021/06/02 14:43:31;;;;;;;2.88;2.55;;;26.60;48.70;;;;;;5038700;28;20037;-87
2021/06/02 14:45:57;;;;;;;3.58;2.75;;;26.40;49.00;;;;;;5037712;28;20034;-87
2021/06/02 14:48:23;;;;;;;7.93;3.40;;;26.30;49.50;;;;;;5046494;28;20083;-87
2021/06/02 14:51:47;;;;;;;5.45;3.40;;;26.20;48.70;;;;;;5032306;28;20045;-86
2021/06/02 15:07:10;;;;;;;5.13;2.78;;;26.30;49.60;;;;;;4967658;28;20105;-87
2021/06/02 15:10:28;;;;;;;9.00;3.03;;;26.20;49.10;;;;;;4947703;28;20061;-85
2021/06/02 15:12:57;;;;;;;4.38;2.65;;;26.00;49.90;;;;;;5020347;28;20105;-88
2021/06/02 15:15:25;;;;;;;4.80;2.80;;;26.10;50.40;;;;;;5048422;28;20029;-87
2021/06/02 15:17:50;;;;;;;6.97;2.35;;;26.00;50.50;;;;;;5051766;28;20044;-86
2021/06/02 15:20:18;;;;;;;3.92;2.53;;;25.90;51.30;;;;;;5048499;28;20051;-89
2021/06/02 15:22:45;;;;;;;4.53;2.88;;;25.80;51.00;;;;;;5050902;28;20041;-89
2021/06/02 15:25:12;;;;;;;4.65;2.55;;;25.90;49.10;;;;;;5032517;28;20045;-88
2021/06/02 15:27:45;;;;;;;6.32;2.75;;;26.00;50.90;;;;;;5041528;28;20037;-84
2021/06/02 15:30:20;;;;;;;4.70;2.90;;;26.00;50.30;;;;;;5039232;28;20033;-84
2021/06/02 15:33:06;;;;;;;6.30;2.88;;;25.90;48.30;;;;;;5029398;28;20041;-87
2021/06/02 15:39:50;;;;;;;5.57;2.67;;;25.80;50.00;;;;;;4955546;28;20122;-86
2021/06/02 15:42:41;;;;;;;5.18;2.75;;;25.80;49.70;;;;;;4967224;28;20106;-87
2021/06/02 15:45:28;;;;;;;6.00;3.15;;;25.90;49.40;;;;;;4951487;28;20051;-87
2021/06/02 15:51:39;;;;;;;3.00;2.80;;;26.20;50.70;;;;;;4960882;28;20061;-88
2021/06/02 15:54:05;;;;;;;3.92;2.78;;;26.10;51.30;;;;;;4948702;28;20038;-87
2021/06/02 15:56:36;;;;;;;4.25;3.13;;;26.10;52.90;;;;;;5024476;28;20072;-88
2021/06/02 15:59:04;;;;;;;5.45;2.80;;;26.30;51.20;;;;;;5044364;28;20052;-89
2021/06/02 16:01:31;;;;;;;5.88;3.10;;;26.10;51.60;;;;;;5026157;28;20047;-90
2021/06/02 16:03:57;;;;;;;4.22;3.00;;;26.00;50.70;;;;;;5045426;28;20459;-90
2021/06/02 16:06:22;;;;;;;4.18;2.88;;;26.30;50.70;;;;;;5041447;28;20041;-88
2021/06/02 16:08:48;;;;;;;11.02;3.10;;;26.10;51.90;;;;;;5045864;28;20033;-88
2021/06/02 16:11:14;;;;;;;10.05;3.03;;;26.00;52.50;;;;;;5048444;28;20442;-89
2021/06/02 16:13:39;;;;;;;8.90;2.45;;;25.90;55.20;;;;;;5047862;28;20037;-89
2021/06/02 16:16:07;;;;;;;4.10;2.42;;;26.00;53.00;;;;;;5031204;28;20069;-89
2021/06/02 17:03:30;;;;;;;8.18;3.63;;;25.30;53.40;;;;;;5043389;28;20045;-88
2021/06/02 17:06:37;;;;;;;4.77;3.37;;;25.30;52.80;;;;;;5005271;28;20049;-89
2021/06/02 17:09:06;;;;;;;3.63;3.28;;;25.20;53.60;;;;;;5043273;28;20103;-87
2021/06/02 17:11:33;;;;;;;6.65;3.63;;;25.20;54.60;;;;;;5047887;28;20039;-87
2021/06/02 17:13:59;;;;;;;7.38;3.75;;;25.30;53.50;;;;;;5047613;28;20073;-88
2021/06/02 17:16:26;;;;;;;5.53;3.58;;;25.30;53.60;;;;;;5028096;28;20068;-88
2021/06/02 17:18:54;;;;;;;10.30;3.60;;;25.10;53.70;;;;;;5043425;28;20037;-88
2021/06/02 17:21:22;;;;;;;5.20;3.38;;;25.30;54.10;;;;;;5046505;28;20044;-88
2021/06/02 17:23:50;;;;;;;3.60;3.30;;;25.00;53.70;;;;;;5044619;28;20045;-87
2021/06/02 17:26:17;;;;;;;3.33;2.95;;;25.00;53.80;;;;;;5046936;28;20380;-89
2021/06/02 17:28:48;;;;;;;6.28;3.05;;;25.00;54.40;;;;;;5032280;28;20033;-87
2021/06/02 17:31:15;;;;;;;9.75;3.60;;;25.00;55.00;;;;;;5052230;28;20045;-89
2021/06/02 17:33:41;;;;;;;4.93;3.28;;;25.00;53.60;;;;;;5049521;28;20163;-89
2021/06/02 17:36:08;;;;;;;4.45;3.28;;;25.00;54.80;;;;;;5034349;28;20491;-88
2021/06/02 17:38:33;;;;;;;5.20;3.95;;;25.00;55.50;;;;;;5050486;28;20119;-86
2021/06/02 17:41:03;;;;;;;6.15;3.35;;;25.00;54.80;;;;;;5049535;28;20622;-91
2021/06/02 17:43:28;;;;;;;5.57;3.38;;;25.00;54.70;;;;;;5052191;28;20037;-88
2021/06/02 17:45:54;;;;;;;6.60;2.83;;;25.20;54.80;;;;;;5032594;28;20086;-89
2021/06/02 18:00:02;;;;;;;9.38;3.22;;;24.80;56.10;;;;;;5049970;28;20090;-90
2021/06/02 18:40:05;;;;;;;7.93;2.90;;;23.70;66.30;;;;;;5006116;28;20088;-89
2021/06/02 19:05:54;;;;;;;6.57;3.13;;;23.10;71.50;;;;;;4921848;29;20214;-88
2021/06/02 19:09:44;;;;;;;10.85;4.10;;;22.90;73.00;;;;;;4901871;29;20074;-88
2021/06/02 21:12:18;;;;;;;6.68;4.60;;;19.50;94.60;;;;;;4868390;29;20119;-88
2021/06/02 21:27:25;;;;;;;5.13;4.38;;;19.20;94.80;;;;;;4924057;29;20074;-87
2021/06/02 22:41:14;;;;;;;11.48;6.57;;;18.20;96.50;;;;;;4984721;28;20049;-88
2021/06/02 23:18:10;;;;;;;9.75;6.72;;;17.80;97.30;;;;;;4927172;29;20045;-88
2021/06/02 23:21:22;;;;;;;11.27;6.53;;;17.80;97.40;;;;;;4941863;28;20128;-88
2021/06/02 23:23:52;;;;;;;8.82;7.03;;;17.70;97.50;;;;;;5026767;28;20037;-88
2021/06/02 23:26:19;;;;;;;7.40;6.28;;;17.70;97.60;;;;;;5025420;28;20103;-87
2021/06/02 23:28:46;;;;;;;9.10;6.40;;;17.70;97.80;;;;;;5029899;28;20032;-88
2021/06/02 23:31:12;;;;;;;9.38;6.43;;;17.60;98.10;;;;;;5043456;28;20116;-87
2021/06/02 23:33:37;;;;;;;9.73;6.90;;;17.50;98.40;;;;;;5044383;28;20068;-88